createdAt,value
2023-01-07T00:01:38.354Z,5.19
2023-01-07T00:04:54.437Z,5.26
2023-01-07T00:08:34.065Z,5.23
2023-01-07T00:12:11.287Z,5.21
2023-01-07T00:15:51.483Z,5.25
2023-01-07T00:19:28.330Z,5.26
2023-01-07T00:23:06.248Z,5.28
2023-01-07T00:26:43.708Z,5.31
2023-01-07T00:30:21.565Z,5.34
2023-01-07T00:33:59.645Z,5.38
2023-01-07T00:37:51.796Z,5.41
2023-01-07T00:41:28.997Z,5.44
2023-01-07T00:45:06.836Z,5.43
2023-01-07T00:48:47.630Z,5.43
2023-01-07T00:52:26.423Z,5.43
2023-01-07T00:56:03.415Z,5.41
2023-01-07T00:59:41.603Z,5.39
2023-01-07T01:03:38.472Z,5.40
2023-01-07T01:06:56.403Z,5.45
2023-01-07T01:10:34.256Z,5.50
2023-01-07T01:14:12.134Z,5.49
2023-01-07T01:17:51.569Z,5.53
2023-01-07T01:21:28.426Z,5.55
2023-01-07T01:25:06.490Z,5.50
2023-01-07T01:28:44.908Z,5.47
2023-01-07T01:32:22.346Z,5.46
2023-01-07T01:36:18.887Z,5.45
2023-01-07T01:39:56.591Z,5.45
2023-01-07T01:43:30.932Z,5.46
2023-01-07T01:47:37.622Z,5.41
2023-01-07T01:51:19.493Z,5.40
2023-01-07T01:55:25.048Z,5.38
2023-01-07T01:58:43.436Z,5.44
2023-01-07T02:02:28.411Z,5.45
2023-01-07T02:06:29.024Z,5.47
2023-01-07T02:09:46.553Z,5.52
2023-01-07T02:14:01.351Z,5.49
2023-01-07T02:17:53.030Z,5.42
2023-01-07T02:22:24.276Z,5.39
2023-01-07T02:26:22.852Z,5.35
2023-01-07T02:30:37.300Z,5.36
2023-01-07T02:34:43.777Z,5.34
2023-01-07T02:38:38.487Z,5.31
2023-01-07T02:42:37.450Z,5.31
2023-01-07T02:46:17.233Z,5.29
2023-01-07T02:50:13.058Z,5.27
2023-01-07T02:53:32.543Z,5.26
2023-01-07T02:58:00.600Z,5.29
2023-01-07T03:02:01.188Z,5.33
2023-01-07T03:06:06.017Z,5.31
2023-01-07T03:10:10.516Z,5.33
2023-01-07T03:14:09.872Z,5.32
2023-01-07T03:17:54.051Z,5.30
2023-01-07T03:21:34.934Z,5.25
2023-01-07T03:25:49.880Z,5.19
2023-01-07T03:29:32.267Z,5.20
2023-01-07T03:33:18.092Z,5.18
2023-01-07T03:37:01.574Z,5.20
2023-01-07T03:40:39.358Z,5.21
2023-01-07T03:44:17.086Z,5.21
2023-01-07T03:47:57.984Z,5.16
2023-01-07T03:51:39.093Z,5.09
2023-01-07T03:55:17.154Z,5.01
2023-01-07T03:59:13.045Z,5.00
2023-01-07T04:02:32.343Z,5.03
2023-01-07T04:06:10.576Z,4.97
2023-01-07T04:09:49.771Z,4.93
2023-01-07T04:13:27.512Z,4.94
2023-01-07T04:17:04.798Z,4.95
2023-01-07T04:20:46.814Z,4.99
2023-01-07T04:24:23.506Z,5.03
2023-01-07T04:28:01.714Z,5.09
2023-01-07T04:31:41.455Z,5.11
2023-01-07T04:35:39.364Z,5.14
2023-01-07T04:39:17.449Z,5.21
2023-01-07T04:42:33.856Z,5.25
2023-01-07T04:46:31.743Z,5.27
2023-01-07T04:49:50.394Z,5.29
2023-01-07T04:53:27.404Z,5.35
2023-01-07T04:57:05.350Z,5.36
2023-01-07T05:00:42.908Z,5.39
2023-01-07T05:04:20.962Z,5.39
2023-01-07T05:07:58.936Z,5.38
2023-01-07T05:11:37.824Z,5.41
2023-01-07T05:15:15.441Z,5.43
2023-01-07T05:19:12.078Z,5.44
2023-01-07T05:22:50.771Z,5.48
2023-01-07T05:26:08.417Z,5.55
2023-01-07T05:29:46.209Z,5.59
2023-01-07T05:33:23.896Z,5.59
2023-01-07T05:37:02.342Z,5.47
2023-01-07T05:40:59.189Z,5.48
2023-01-07T05:44:17.402Z,5.54
2023-01-07T05:48:15.057Z,5.55
2023-01-07T05:51:32.866Z,5.57
2023-01-07T05:55:10.544Z,5.55
2023-01-07T05:58:48.141Z,5.54
2023-01-07T06:02:25.854Z,5.53
2023-01-07T06:06:22.622Z,5.47
2023-01-07T06:09:41.780Z,5.49
2023-01-07T06:13:20.084Z,5.43
2023-01-07T06:17:15.663Z,5.35
2023-01-07T06:20:34.923Z,5.34
2023-01-07T06:24:12.079Z,5.33
2023-01-07T06:27:49.916Z,5.33
2023-01-07T06:31:27.810Z,5.36
2023-01-07T06:35:09.795Z,5.40
2023-01-07T06:38:46.496Z,5.41
2023-01-07T06:42:24.322Z,5.40
2023-01-07T06:46:01.894Z,5.35
2023-01-07T06:49:39.496Z,5.29
2023-01-07T06:53:18.143Z,5.24
2023-01-07T06:56:55.526Z,5.25
2023-01-07T07:00:32.728Z,5.27
2023-01-07T07:04:10.284Z,5.19
2023-01-07T07:07:48.342Z,5.19
2023-01-07T07:11:25.614Z,5.22
2023-01-07T07:15:05.103Z,5.27
2023-01-07T07:18:41.851Z,5.28
2023-01-07T07:22:19.926Z,5.28
2023-01-07T07:25:57.439Z,5.31
2023-01-07T07:29:36.961Z,5.37
2023-01-07T07:33:15.203Z,5.35
2023-01-07T07:36:52.176Z,5.36
2023-01-07T07:40:48.407Z,5.40
2023-01-07T07:44:07.386Z,5.50
2023-01-07T07:47:45.980Z,5.56
2023-01-07T07:51:41.741Z,5.56
2023-01-07T07:55:20.307Z,5.57
2023-01-07T07:58:57.663Z,5.56
2023-01-07T08:02:34.834Z,5.49
2023-01-07T08:06:13.637Z,5.43
2023-01-07T08:09:50.312Z,5.38
2023-01-07T08:13:28.449Z,5.35
2023-01-07T08:17:05.544Z,5.31
2023-01-07T08:20:45.300Z,5.34
2023-01-07T08:24:23.251Z,5.32
2023-01-07T08:28:02.128Z,5.31
2023-01-07T08:31:39.443Z,5.32
2023-01-07T08:35:35.927Z,5.35
2023-01-07T08:38:55.168Z,5.40
2023-01-07T08:42:32.145Z,5.43
2023-01-07T08:46:11.410Z,5.46
2023-01-07T08:49:48.174Z,5.51
2023-01-07T08:53:27.288Z,5.57
2023-01-07T08:57:04.299Z,5.62
2023-01-07T09:00:42.960Z,5.65
2023-01-07T09:04:19.612Z,5.70
2023-01-07T09:07:57.726Z,5.75
2023-01-07T09:11:38.611Z,5.82
2023-01-07T09:15:15.905Z,5.92
2023-01-07T09:18:53.406Z,6.02
2023-01-07T09:22:32.450Z,6.07
2023-01-07T09:26:09.539Z,6.11
2023-01-07T09:29:46.768Z,6.14
2023-01-07T09:33:24.773Z,6.17
2023-01-07T09:37:03.274Z,6.19
2023-01-07T09:40:43.366Z,6.22
2023-01-07T09:44:38.363Z,6.16
2023-01-07T09:48:28.643Z,6.15
2023-01-07T09:52:13.862Z,6.16
2023-01-07T09:56:10.666Z,6.16
2023-01-07T09:59:49.428Z,6.20
2023-01-07T10:03:57.608Z,6.17
2023-01-07T10:07:43.371Z,6.12
2023-01-07T10:11:45.652Z,6.10
2023-01-07T10:15:25.265Z,6.11
2023-01-07T10:19:27.545Z,6.10
2023-01-07T10:23:14.774Z,6.09
2023-01-07T10:26:56.502Z,6.05
2023-01-07T10:30:41.708Z,6.08
2023-01-07T10:34:25.316Z,6.08
2023-01-07T10:38:04.830Z,6.07
2023-01-07T10:42:15.941Z,6.16
2023-01-07T10:45:58.003Z,6.28
2023-01-07T10:49:47.103Z,6.41
2023-01-07T10:53:44.348Z,6.51
2023-01-07T10:57:28.038Z,6.65
2023-01-07T11:01:07.070Z,6.82
2023-01-07T11:04:44.353Z,7.02
2023-01-07T11:08:38.348Z,7.30
2023-01-07T11:12:24.659Z,7.66
2023-01-07T11:16:11.954Z,7.99
2023-01-07T11:19:52.497Z,8.24
2023-01-07T11:23:43.866Z,8.37
2023-01-07T11:27:23.959Z,8.36
2023-01-07T11:31:02.370Z,8.32
2023-01-07T11:34:56.594Z,8.33
2023-01-07T11:38:38.669Z,8.31
2023-01-07T11:42:37.780Z,8.40
2023-01-07T11:46:19.122Z,8.52
2023-01-07T11:49:57.222Z,8.76
2023-01-07T11:53:51.075Z,9.07
2023-01-07T11:57:27.878Z,9.29
2023-01-07T12:01:08.673Z,9.57
2023-01-07T12:05:21.216Z,9.83
2023-01-07T12:08:27.169Z,10.07
2023-01-07T12:12:31.378Z,10.25
2023-01-07T12:16:09.250Z,10.23
2023-01-07T12:19:46.244Z,10.03
2023-01-07T12:23:45.269Z,10.12
2023-01-07T12:27:26.191Z,10.26
2023-01-07T12:31:37.159Z,10.28
2023-01-07T12:35:25.082Z,10.09
2023-01-07T12:39:11.405Z,9.83
2023-01-07T12:43:15.292Z,9.70
2023-01-07T12:47:31.403Z,9.49
2023-01-07T12:51:01.523Z,9.38
2023-01-07T12:55:11.555Z,9.34
2023-01-07T12:59:45.941Z,9.46
2023-01-07T13:02:37.596Z,9.59
2023-01-07T13:06:22.309Z,9.61
2023-01-07T13:10:34.828Z,9.60
2023-01-07T13:14:47.944Z,9.72
2023-01-07T13:18:43.746Z,9.88
2023-01-07T13:22:03.387Z,9.80
2023-01-07T13:26:06.286Z,9.63
2023-01-07T13:30:20.429Z,9.43
2023-01-07T13:34:24.990Z,9.17
2023-01-07T13:38:04.791Z,9.10
2023-01-07T13:42:19.359Z,8.99
2023-01-07T13:45:30.336Z,8.96
2023-01-07T13:49:24.729Z,8.92
2023-01-07T13:53:21.230Z,8.85
2023-01-07T13:57:25.974Z,8.73
2023-01-07T14:00:40.451Z,8.69
2023-01-07T14:04:47.261Z,8.59
2023-01-07T14:08:29.458Z,8.44
2023-01-07T14:12:41.515Z,8.29
2023-01-07T14:16:03.982Z,8.15
2023-01-07T14:20:03.111Z,8.03
2023-01-07T14:23:49.741Z,7.81
2023-01-07T14:27:40.834Z,7.57
2023-01-07T14:31:27.301Z,7.44
2023-01-07T14:35:19.934Z,7.32
2023-01-07T14:38:58.737Z,7.24
2023-01-07T14:42:45.042Z,7.14
2023-01-07T14:46:22.229Z,7.07
2023-01-07T14:50:15.142Z,7.00
2023-01-07T14:54:27.168Z,6.87
2023-01-07T14:58:37.288Z,6.76
2023-01-07T15:01:47.716Z,6.67
2023-01-07T15:05:43.076Z,6.63
2023-01-07T15:09:55.085Z,6.58
2023-01-07T15:13:54.860Z,6.49
2023-01-07T15:17:32.506Z,6.41
2023-01-07T15:21:32.159Z,6.34
2023-01-07T15:25:30.123Z,6.26
2023-01-07T15:29:21.974Z,6.15
2023-01-07T15:33:44.076Z,6.04
2023-01-07T15:36:46.458Z,5.96
2023-01-07T15:40:26.055Z,5.88
2023-01-07T15:44:06.313Z,5.75
2023-01-07T15:47:43.571Z,5.74
2023-01-07T15:51:22.651Z,5.53
2023-01-07T15:55:51.240Z,5.09
2023-01-07T15:58:45.966Z,4.74
2023-01-07T16:02:30.984Z,4.52
2023-01-07T16:06:31.153Z,4.37
2023-01-07T16:10:19.686Z,4.22
2023-01-07T16:13:58.879Z,4.19
2023-01-07T16:17:36.261Z,4.29
2023-01-07T16:21:15.162Z,4.41
2023-01-07T16:24:53.795Z,4.51
2023-01-07T16:28:39.045Z,4.44
2023-01-07T16:32:16.801Z,4.31
2023-01-07T16:35:58.410Z,4.27
2023-01-07T16:39:40.636Z,4.21
2023-01-07T16:43:47.141Z,4.08
2023-01-07T16:47:27.242Z,3.95
2023-01-07T16:51:05.359Z,3.71
2023-01-07T16:54:44.415Z,3.43
2023-01-07T16:58:33.427Z,3.23
2023-01-07T17:02:52.562Z,3.17
2023-01-07T17:06:37.405Z,3.09
2023-01-07T17:10:25.485Z,3.10
2023-01-07T17:14:05.258Z,3.27
2023-01-07T17:17:42.311Z,3.46
2023-01-07T17:21:36.587Z,3.59
2023-01-07T17:25:47.703Z,3.64
2023-01-07T17:29:39.485Z,3.72
2023-01-07T17:33:17.332Z,3.76
2023-01-07T17:36:54.059Z,3.80
2023-01-07T17:40:32.129Z,3.85
2023-01-07T17:44:12.651Z,3.93
2023-01-07T17:47:50.383Z,3.95
2023-01-07T17:51:28.252Z,3.92
2023-01-07T17:55:05.404Z,3.94
2023-01-07T17:58:44.878Z,3.88
2023-01-07T18:02:40.940Z,3.82
2023-01-07T18:05:59.753Z,3.82
2023-01-07T18:09:38.791Z,3.86
2023-01-07T18:13:16.189Z,3.86
2023-01-07T18:16:56.086Z,3.93
2023-01-07T18:20:33.236Z,4.03
2023-01-07T18:24:16.104Z,4.14
2023-01-07T18:27:53.396Z,4.21
2023-01-07T18:31:51.919Z,4.28
2023-01-07T18:35:09.593Z,4.37
2023-01-07T18:38:46.852Z,4.44
2023-01-07T18:42:24.200Z,4.48
2023-01-07T18:46:01.852Z,4.51
2023-01-07T18:49:40.720Z,4.57
2023-01-07T18:53:20.005Z,4.57
2023-01-07T18:56:56.961Z,4.59
2023-01-07T19:00:53.960Z,4.63
2023-01-07T19:04:12.208Z,4.61
2023-01-07T19:07:50.252Z,4.62
2023-01-07T19:11:27.536Z,4.70
2023-01-07T19:15:06.029Z,4.72
2023-01-07T19:18:43.504Z,4.72
2023-01-07T19:22:22.169Z,4.71
2023-01-07T19:26:02.247Z,4.71
2023-01-07T19:29:40.511Z,4.73
2023-01-07T19:33:18.417Z,4.71
2023-01-07T19:36:55.414Z,4.69
2023-01-07T19:40:32.970Z,4.74
2023-01-07T19:44:11.958Z,4.80
2023-01-07T19:48:07.682Z,4.81
2023-01-07T19:51:27.217Z,4.83
2023-01-07T19:55:04.864Z,4.85
2023-01-07T19:58:43.191Z,4.86
2023-01-07T20:02:20.351Z,4.85
2023-01-07T20:06:06.684Z,4.84
2023-01-07T20:09:43.670Z,4.81
2023-01-07T20:13:21.454Z,4.73
2023-01-07T20:17:17.866Z,4.53
2023-01-07T20:20:59.819Z,4.47
2023-01-07T20:24:33.311Z,4.53
2023-01-07T20:28:11.035Z,4.53
2023-01-07T20:31:31.367Z,4.48
2023-01-07T20:35:09.334Z,4.31
2023-01-07T20:38:48.488Z,4.25
2023-01-07T20:42:27.327Z,4.19
2023-01-07T20:46:06.447Z,4.09
2023-01-07T20:49:45.599Z,4.08
2023-01-07T20:53:26.359Z,4.12
2023-01-07T20:57:03.156Z,4.18
2023-01-07T21:00:41.912Z,4.17
2023-01-07T21:04:18.811Z,4.08
2023-01-07T21:07:56.667Z,4.00
2023-01-07T21:11:34.419Z,3.93
2023-01-07T21:15:13.930Z,3.96
2023-01-07T21:18:50.605Z,3.95
2023-01-07T21:22:28.683Z,4.01
2023-01-07T21:26:07.231Z,4.07
2023-01-07T21:29:44.164Z,4.06
2023-01-07T21:33:21.695Z,4.06
2023-01-07T21:37:53.312Z,4.08
2023-01-07T21:41:13.304Z,4.15
2023-01-07T21:44:50.285Z,4.13
2023-01-07T21:48:38.742Z,4.09
2023-01-07T21:52:05.568Z,4.08
2023-01-07T21:55:45.453Z,4.09
2023-01-07T21:59:41.078Z,4.10
2023-01-07T22:03:18.615Z,4.19
2023-01-07T22:06:56.396Z,4.28
2023-01-07T22:10:15.172Z,4.36
2023-01-07T22:13:58.050Z,4.40
2023-01-07T22:17:54.701Z,4.45
2023-01-07T22:21:13.899Z,4.51
2023-01-07T22:24:50.599Z,4.52
2023-01-07T22:28:32.067Z,4.60
2023-01-07T22:32:08.751Z,4.64
2023-01-07T22:36:05.749Z,4.67
2023-01-07T22:39:46.443Z,4.73
2023-01-07T22:43:25.274Z,4.76
2023-01-07T22:47:03.604Z,4.76
2023-01-07T22:50:41.070Z,4.81
2023-01-07T22:54:19.305Z,4.86
2023-01-07T22:58:17.295Z,4.86
2023-01-07T23:01:34.439Z,4.80
2023-01-07T23:05:11.591Z,4.80
2023-01-07T23:08:50.626Z,4.81
2023-01-07T23:12:27.385Z,4.86
2023-01-07T23:16:07.665Z,4.84
2023-01-07T23:19:52.242Z,4.80
2023-01-07T23:23:41.009Z,4.79
2023-01-07T23:26:59.881Z,4.82
2023-01-07T23:30:37.553Z,4.81
2023-01-07T23:34:15.917Z,4.80
2023-01-07T23:37:52.773Z,4.86
2023-01-07T23:41:31.345Z,4.86
2023-01-07T23:45:09.022Z,4.89
2023-01-07T23:48:47.518Z,4.88
2023-01-07T23:52:24.334Z,4.88
2023-01-07T23:56:05.849Z,4.89
2023-01-07T23:59:44.010Z,4.85
